sensor_id;sensor_type;location;lat;lon;timestamp;pressure;altitude;pressure_sealevel;temperature;humidity
58991;BME280;44781;53.444;14.476;2023-07-29T00:02:27;100761.75;;;15.14;74.48
58991;BME280;44781;53.444;14.476;2023-07-29T00:04:57;100757.63;;;15.12;74.70
58991;BME280;44781;53.444;14.476;2023-07-29T00:07:24;100755.44;;;15.11;74.83
58991;BME280;44781;53.444;14.476;2023-07-29T00:09:53;100750.94;;;15.09;74.99
58991;BME280;44781;53.444;14.476;2023-07-29T00:12:23;100750.21;;;15.08;75.06
58991;BME280;44781;53.444;14.476;2023-07-29T00:15:05;100748.70;;;15.03;75.20
58991;BME280;44781;53.444;14.476;2023-07-29T00:17:31;100747.73;;;14.98;75.31
58991;BME280;44781;53.444;14.476;2023-07-29T00:19:58;100741.64;;;14.94;75.03
58991;BME280;44781;53.444;14.476;2023-07-29T00:22:31;100742.65;;;14.91;74.98
58991;BME280;44781;53.444;14.476;2023-07-29T00:25:02;100741.25;;;14.89;75.21
58991;BME280;44781;53.444;14.476;2023-07-29T00:27:29;100737.41;;;14.88;75.34
58991;BME280;44781;53.444;14.476;2023-07-29T00:30:02;100737.92;;;14.87;75.59
58991;BME280;44781;53.444;14.476;2023-07-29T00:32:36;100741.00;;;14.85;75.69
58991;BME280;44781;53.444;14.476;2023-07-29T00:35:10;100735.53;;;14.83;75.96
58991;BME280;44781;53.444;14.476;2023-07-29T00:37:40;100726.02;;;14.79;75.99
58991;BME280;44781;53.444;14.476;2023-07-29T00:40:20;100724.96;;;14.77;75.99
58991;BME280;44781;53.444;14.476;2023-07-29T00:42:49;100726.02;;;14.77;76.04
58991;BME280;44781;53.444;14.476;2023-07-29T00:45:17;100721.81;;;14.77;76.20
58991;BME280;44781;53.444;14.476;2023-07-29T00:47:45;100721.16;;;14.76;75.98
58991;BME280;44781;53.444;14.476;2023-07-29T00:50:13;100719.15;;;14.75;76.16
58991;BME280;44781;53.444;14.476;2023-07-29T00:52:41;100722.55;;;14.73;76.35
58991;BME280;44781;53.444;14.476;2023-07-29T00:55:08;100724.41;;;14.70;76.46
58991;BME280;44781;53.444;14.476;2023-07-29T00:57:35;100724.27;;;14.68;76.46
58991;BME280;44781;53.444;14.476;2023-07-29T01:00:02;100724.48;;;14.68;76.56
58991;BME280;44781;53.444;14.476;2023-07-29T01:02:31;100726.19;;;14.68;76.53
58991;BME280;44781;53.444;14.476;2023-07-29T01:04:59;100726.34;;;14.69;76.42
58991;BME280;44781;53.444;14.476;2023-07-29T01:10:04;100719.95;;;14.66;76.28
58991;BME280;44781;53.444;14.476;2023-07-29T01:15:16;100720.95;;;14.57;76.41
58991;BME280;44781;53.444;14.476;2023-07-29T01:17:51;100717.69;;;14.54;76.41
58991;BME280;44781;53.444;14.476;2023-07-29T01:20:20;100715.92;;;14.52;76.23
58991;BME280;44781;53.444;14.476;2023-07-29T01:22:48;100715.33;;;14.51;76.25
58991;BME280;44781;53.444;14.476;2023-07-29T01:25:15;100713.15;;;14.49;76.28
58991;BME280;44781;53.444;14.476;2023-07-29T01:27:44;100713.16;;;14.48;76.51
58991;BME280;44781;53.444;14.476;2023-07-29T01:30:11;100716.46;;;14.45;76.39
58991;BME280;44781;53.444;14.476;2023-07-29T01:32:55;100724.27;;;14.41;76.39
58991;BME280;44781;53.444;14.476;2023-07-29T01:35:34;100716.90;;;14.38;76.75
58991;BME280;44781;53.444;14.476;2023-07-29T01:38:11;100708.89;;;14.36;77.00
58991;BME280;44781;53.444;14.476;2023-07-29T01:40:40;100705.77;;;14.35;77.36
58991;BME280;44781;53.444;14.476;2023-07-29T01:43:07;100705.65;;;14.34;77.24
58991;BME280;44781;53.444;14.476;2023-07-29T01:45:35;100706.80;;;14.34;77.12
58991;BME280;44781;53.444;14.476;2023-07-29T01:48:05;100711.40;;;14.32;77.28
58991;BME280;44781;53.444;14.476;2023-07-29T01:50:36;100715.33;;;14.30;77.45
58991;BME280;44781;53.444;14.476;2023-07-29T01:53:05;100720.47;;;14.26;77.20
58991;BME280;44781;53.444;14.476;2023-07-29T01:55:32;100718.34;;;14.24;77.29
58991;BME280;44781;53.444;14.476;2023-07-29T01:57:59;100720.56;;;14.23;77.61
58991;BME280;44781;53.444;14.476;2023-07-29T02:00:26;100718.98;;;14.23;77.73
58991;BME280;44781;53.444;14.476;2023-07-29T02:02:53;100715.82;;;14.23;77.74
58991;BME280;44781;53.444;14.476;2023-07-29T02:05:20;100710.89;;;14.22;78.08
58991;BME280;44781;53.444;14.476;2023-07-29T02:07:46;100710.80;;;14.21;77.82
58991;BME280;44781;53.444;14.476;2023-07-29T02:10:15;100712.05;;;14.19;77.66
58991;BME280;44781;53.444;14.476;2023-07-29T02:12:42;100716.19;;;14.16;77.59
58991;BME280;44781;53.444;14.476;2023-07-29T02:15:09;100717.80;;;14.16;77.57
58991;BME280;44781;53.444;14.476;2023-07-29T02:17:36;100715.16;;;14.16;77.87
58991;BME280;44781;53.444;14.476;2023-07-29T02:20:04;100716.43;;;14.15;77.93
58991;BME280;44781;53.444;14.476;2023-07-29T02:22:30;100718.87;;;14.16;78.01
58991;BME280;44781;53.444;14.476;2023-07-29T02:24:57;100719.66;;;14.15;78.02
58991;BME280;44781;53.444;14.476;2023-07-29T02:27:24;100714.03;;;14.13;77.95
58991;BME280;44781;53.444;14.476;2023-07-29T02:29:54;100716.27;;;14.10;77.90
58991;BME280;44781;53.444;14.476;2023-07-29T02:32:21;100716.84;;;14.08;77.97
58991;BME280;44781;53.444;14.476;2023-07-29T02:34:48;100715.69;;;14.07;78.12
58991;BME280;44781;53.444;14.476;2023-07-29T02:37:16;100713.70;;;14.07;78.31
58991;BME280;44781;53.444;14.476;2023-07-29T02:39:44;100715.02;;;14.08;78.37
58991;BME280;44781;53.444;14.476;2023-07-29T02:42:11;100714.25;;;14.08;78.44
58991;BME280;44781;53.444;14.476;2023-07-29T02:44:39;100715.45;;;14.09;78.62
58991;BME280;44781;53.444;14.476;2023-07-29T02:47:07;100712.00;;;14.08;78.85
58991;BME280;44781;53.444;14.476;2023-07-29T02:49:34;100716.02;;;14.07;79.01
58991;BME280;44781;53.444;14.476;2023-07-29T02:52:00;100716.77;;;14.04;78.86
58991;BME280;44781;53.444;14.476;2023-07-29T02:54:27;100718.67;;;14.07;78.99
58991;BME280;44781;53.444;14.476;2023-07-29T02:56:54;100718.63;;;14.09;78.97
58991;BME280;44781;53.444;14.476;2023-07-29T02:59:21;100717.96;;;14.11;79.11
58991;BME280;44781;53.444;14.476;2023-07-29T03:01:48;100722.07;;;14.12;79.44
58991;BME280;44781;53.444;14.476;2023-07-29T03:04:15;100726.29;;;14.13;79.30
58991;BME280;44781;53.444;14.476;2023-07-29T03:06:42;100726.95;;;14.13;79.47
58991;BME280;44781;53.444;14.476;2023-07-29T03:09:09;100725.88;;;14.13;79.55
58991;BME280;44781;53.444;14.476;2023-07-29T03:11:36;100720.84;;;14.14;79.82
58991;BME280;44781;53.444;14.476;2023-07-29T03:14:03;100719.07;;;14.16;79.96
58991;BME280;44781;53.444;14.476;2023-07-29T03:16:30;100717.95;;;14.18;80.18
58991;BME280;44781;53.444;14.476;2023-07-29T03:18:57;100715.67;;;14.20;80.15
58991;BME280;44781;53.444;14.476;2023-07-29T03:21:26;100713.96;;;14.21;80.12
58991;BME280;44781;53.444;14.476;2023-07-29T03:23:52;100708.94;;;14.22;80.08
58991;BME280;44781;53.444;14.476;2023-07-29T03:26:19;100708.60;;;14.24;80.10
58991;BME280;44781;53.444;14.476;2023-07-29T03:28:46;100713.59;;;14.25;80.41
58991;BME280;44781;53.444;14.476;2023-07-29T03:31:14;100719.59;;;14.28;80.50
58991;BME280;44781;53.444;14.476;2023-07-29T03:33:41;100725.41;;;14.32;80.73
58991;BME280;44781;53.444;14.476;2023-07-29T03:36:09;100724.70;;;14.36;80.87
58991;BME280;44781;53.444;14.476;2023-07-29T03:38:36;100723.35;;;14.39;80.94
58991;BME280;44781;53.444;14.476;2023-07-29T03:41:08;100727.20;;;14.42;81.18
58991;BME280;44781;53.444;14.476;2023-07-29T03:43:35;100724.89;;;14.44;81.50
58991;BME280;44781;53.444;14.476;2023-07-29T03:46:02;100716.30;;;14.46;81.73
58991;BME280;44781;53.444;14.476;2023-07-29T03:48:29;100713.52;;;14.49;81.86
58991;BME280;44781;53.444;14.476;2023-07-29T03:50:57;100709.45;;;14.53;82.35
58991;BME280;44781;53.444;14.476;2023-07-29T03:53:24;100704.90;;;14.56;82.68
58991;BME280;44781;53.444;14.476;2023-07-29T03:55:51;100706.79;;;14.57;82.95
58991;BME280;44781;53.444;14.476;2023-07-29T03:58:18;100722.73;;;14.67;83.54
58991;BME280;44781;53.444;14.476;2023-07-29T04:00:45;100723.39;;;14.73;83.92
58991;BME280;44781;53.444;14.476;2023-07-29T04:03:13;100732.14;;;14.80;84.31
58991;BME280;44781;53.444;14.476;2023-07-29T04:05:40;100734.61;;;14.86;84.43
58991;BME280;44781;53.444;14.476;2023-07-29T04:08:07;100732.42;;;14.91;84.70
58991;BME280;44781;53.444;14.476;2023-07-29T04:10:34;100732.66;;;14.95;84.87
58991;BME280;44781;53.444;14.476;2023-07-29T04:13:02;100732.52;;;15.01;85.06
58991;BME280;44781;53.444;14.476;2023-07-29T04:15:28;100727.66;;;15.07;85.46
58991;BME280;44781;53.444;14.476;2023-07-29T04:17:56;100728.41;;;15.14;85.74
58991;BME280;44781;53.444;14.476;2023-07-29T04:20:23;100728.25;;;15.21;85.93
58991;BME280;44781;53.444;14.476;2023-07-29T04:22:50;100723.84;;;15.28;86.35
58991;BME280;44781;53.444;14.476;2023-07-29T04:25:18;100724.31;;;15.37;86.45
58991;BME280;44781;53.444;14.476;2023-07-29T04:27:45;100721.42;;;15.44;86.57
58991;BME280;44781;53.444;14.476;2023-07-29T04:30:12;100722.44;;;15.52;86.75
58991;BME280;44781;53.444;14.476;2023-07-29T04:32:38;100725.23;;;15.60;87.10
58991;BME280;44781;53.444;14.476;2023-07-29T04:35:08;100733.13;;;15.68;86.96
58991;BME280;44781;53.444;14.476;2023-07-29T04:37:37;100734.05;;;15.78;87.23
58991;BME280;44781;53.444;14.476;2023-07-29T04:40:05;100728.89;;;15.85;87.46
58991;BME280;44781;53.444;14.476;2023-07-29T04:42:32;100724.63;;;15.92;87.75
58991;BME280;44781;53.444;14.476;2023-07-29T04:44:59;100724.45;;;15.99;88.07
58991;BME280;44781;53.444;14.476;2023-07-29T04:47:25;100723.48;;;16.07;88.30
58991;BME280;44781;53.444;14.476;2023-07-29T04:49:54;100727.07;;;16.16;88.79
58991;BME280;44781;53.444;14.476;2023-07-29T04:52:21;100725.48;;;16.24;88.93
58991;BME280;44781;53.444;14.476;2023-07-29T04:54:48;100729.27;;;16.35;89.48
58991;BME280;44781;53.444;14.476;2023-07-29T04:57:15;100727.33;;;16.43;89.75
58991;BME280;44781;53.444;14.476;2023-07-29T04:59:42;100728.88;;;16.53;89.74
58991;BME280;44781;53.444;14.476;2023-07-29T05:02:09;100729.04;;;16.62;89.88
58991;BME280;44781;53.444;14.476;2023-07-29T05:04:36;100724.07;;;16.70;90.05
58991;BME280;44781;53.444;14.476;2023-07-29T05:07:04;100725.57;;;16.78;90.41
58991;BME280;44781;53.444;14.476;2023-07-29T05:09:30;100727.45;;;16.86;90.31
58991;BME280;44781;53.444;14.476;2023-07-29T05:11:57;100724.51;;;16.94;90.53
58991;BME280;44781;53.444;14.476;2023-07-29T05:14:24;100720.64;;;17.02;90.40
58991;BME280;44781;53.444;14.476;2023-07-29T05:16:51;100719.80;;;17.10;90.54
58991;BME280;44781;53.444;14.476;2023-07-29T05:19:18;100715.52;;;17.17;90.54
58991;BME280;44781;53.444;14.476;2023-07-29T05:21:45;100716.33;;;17.24;90.47
58991;BME280;44781;53.444;14.476;2023-07-29T05:24:12;100723.13;;;17.33;90.58
58991;BME280;44781;53.444;14.476;2023-07-29T05:26:39;100724.32;;;17.40;90.69
58991;BME280;44781;53.444;14.476;2023-07-29T05:29:06;100723.88;;;17.48;90.60
58991;BME280;44781;53.444;14.476;2023-07-29T05:31:35;100722.00;;;17.55;90.72
58991;BME280;44781;53.444;14.476;2023-07-29T05:34:01;100724.56;;;17.63;90.67
58991;BME280;44781;53.444;14.476;2023-07-29T05:36:28;100728.14;;;17.71;90.56
58991;BME280;44781;53.444;14.476;2023-07-29T05:38:59;100722.95;;;17.78;90.53
58991;BME280;44781;53.444;14.476;2023-07-29T05:41:26;100725.39;;;17.86;90.28
58991;BME280;44781;53.444;14.476;2023-07-29T05:43:55;100728.27;;;17.93;90.30
58991;BME280;44781;53.444;14.476;2023-07-29T05:46:22;100734.36;;;17.99;90.29
58991;BME280;44781;53.444;14.476;2023-07-29T05:48:49;100728.07;;;18.04;90.08
58991;BME280;44781;53.444;14.476;2023-07-29T05:51:16;100726.01;;;18.10;89.74
58991;BME280;44781;53.444;14.476;2023-07-29T05:53:43;100724.17;;;18.16;89.71
58991;BME280;44781;53.444;14.476;2023-07-29T05:56:21;100725.67;;;18.22;89.66
58991;BME280;44781;53.444;14.476;2023-07-29T05:58:58;100726.10;;;18.27;89.88
58991;BME280;44781;53.444;14.476;2023-07-29T06:01:44;100723.65;;;18.33;89.94
58991;BME280;44781;53.444;14.476;2023-07-29T06:04:17;100718.55;;;18.39;89.99
58991;BME280;44781;53.444;14.476;2023-07-29T06:06:45;100721.17;;;18.45;90.00
58991;BME280;44781;53.444;14.476;2023-07-29T06:09:24;100716.52;;;18.50;90.00
58991;BME280;44781;53.444;14.476;2023-07-29T06:11:58;100712.70;;;18.55;89.85
58991;BME280;44781;53.444;14.476;2023-07-29T06:14:28;100709.38;;;18.61;90.15
58991;BME280;44781;53.444;14.476;2023-07-29T06:16:55;100707.15;;;18.66;89.98
58991;BME280;44781;53.444;14.476;2023-07-29T06:19:22;100704.16;;;18.72;89.80
58991;BME280;44781;53.444;14.476;2023-07-29T06:21:49;100698.40;;;18.79;90.01
58991;BME280;44781;53.444;14.476;2023-07-29T06:24:18;100695.61;;;18.85;89.93
58991;BME280;44781;53.444;14.476;2023-07-29T06:26:45;100693.78;;;18.90;90.11
58991;BME280;44781;53.444;14.476;2023-07-29T06:29:11;100683.89;;;18.94;89.96
58991;BME280;44781;53.444;14.476;2023-07-29T06:31:38;100684.09;;;18.97;89.93
58991;BME280;44781;53.444;14.476;2023-07-29T06:34:05;100689.04;;;19.01;89.77
58991;BME280;44781;53.444;14.476;2023-07-29T06:36:32;100687.01;;;19.06;89.74
58991;BME280;44781;53.444;14.476;2023-07-29T06:38:59;100688.23;;;19.13;89.99
58991;BME280;44781;53.444;14.476;2023-07-29T06:41:26;100678.39;;;19.19;89.91
58991;BME280;44781;53.444;14.476;2023-07-29T06:43:53;100675.38;;;19.25;89.92
58991;BME280;44781;53.444;14.476;2023-07-29T06:46:20;100670.19;;;19.29;90.03
58991;BME280;44781;53.444;14.476;2023-07-29T06:48:46;100672.04;;;19.34;89.87
58991;BME280;44781;53.444;14.476;2023-07-29T06:51:13;100673.10;;;19.38;89.62
58991;BME280;44781;53.444;14.476;2023-07-29T06:53:40;100670.73;;;19.43;89.43
58991;BME280;44781;53.444;14.476;2023-07-29T06:56:07;100674.71;;;19.49;89.31
58991;BME280;44781;53.444;14.476;2023-07-29T06:58:34;100673.39;;;19.55;89.13
58991;BME280;44781;53.444;14.476;2023-07-29T07:01:01;100675.14;;;19.60;89.13
58991;BME280;44781;53.444;14.476;2023-07-29T07:03:29;100679.52;;;19.64;89.10
58991;BME280;44781;53.444;14.476;2023-07-29T07:05:56;100682.11;;;19.69;89.10
58991;BME280;44781;53.444;14.476;2023-07-29T07:08:24;100681.94;;;19.74;88.82
58991;BME280;44781;53.444;14.476;2023-07-29T07:10:51;100677.30;;;19.80;88.65
58991;BME280;44781;53.444;14.476;2023-07-29T07:13:18;100670.65;;;19.86;88.65
58991;BME280;44781;53.444;14.476;2023-07-29T07:15:45;100671.67;;;19.93;88.95
58991;BME280;44781;53.444;14.476;2023-07-29T07:18:11;100667.27;;;19.98;88.74
58991;BME280;44781;53.444;14.476;2023-07-29T07:20:38;100666.28;;;20.03;88.48
58991;BME280;44781;53.444;14.476;2023-07-29T07:23:06;100666.22;;;20.09;88.30
58991;BME280;44781;53.444;14.476;2023-07-29T07:25:35;100662.14;;;20.13;88.27
58991;BME280;44781;53.444;14.476;2023-07-29T07:28:02;100666.21;;;20.21;88.35
58991;BME280;44781;53.444;14.476;2023-07-29T07:30:30;100660.42;;;20.29;88.22
58991;BME280;44781;53.444;14.476;2023-07-29T07:32:57;100657.81;;;20.37;88.31
58991;BME280;44781;53.444;14.476;2023-07-29T07:35:24;100656.58;;;20.46;88.28
58991;BME280;44781;53.444;14.476;2023-07-29T07:37:51;100657.52;;;20.56;88.38
58991;BME280;44781;53.444;14.476;2023-07-29T07:40:18;100656.23;;;20.66;88.20
58991;BME280;44781;53.444;14.476;2023-07-29T07:42:45;100657.04;;;20.75;88.26
58991;BME280;44781;53.444;14.476;2023-07-29T07:45:12;100655.68;;;20.85;87.99
58991;BME280;44781;53.444;14.476;2023-07-29T07:47:39;100656.88;;;20.95;87.88
58991;BME280;44781;53.444;14.476;2023-07-29T07:50:06;100659.52;;;21.04;87.45
58991;BME280;44781;53.444;14.476;2023-07-29T07:52:33;100654.95;;;21.12;87.36
58991;BME280;44781;53.444;14.476;2023-07-29T07:55:00;100655.07;;;21.19;86.62
58991;BME280;44781;53.444;14.476;2023-07-29T07:57:27;100649.13;;;21.25;86.04
58991;BME280;44781;53.444;14.476;2023-07-29T07:59:54;100645.34;;;21.30;85.61
58991;BME280;44781;53.444;14.476;2023-07-29T08:02:20;100642.50;;;21.36;85.27
58991;BME280;44781;53.444;14.476;2023-07-29T08:04:48;100636.48;;;21.42;85.06
58991;BME280;44781;53.444;14.476;2023-07-29T08:07:15;100636.88;;;21.51;85.09
58991;BME280;44781;53.444;14.476;2023-07-29T08:09:42;100635.70;;;21.60;84.90
58991;BME280;44781;53.444;14.476;2023-07-29T08:12:09;100636.99;;;21.70;84.72
58991;BME280;44781;53.444;14.476;2023-07-29T08:14:36;100639.41;;;21.81;84.19
58991;BME280;44781;53.444;14.476;2023-07-29T08:17:03;100637.48;;;21.92;83.76
58991;BME280;44781;53.444;14.476;2023-07-29T08:19:30;100634.98;;;22.01;83.44
58991;BME280;44781;53.444;14.476;2023-07-29T08:21:57;100633.77;;;22.11;82.89
58991;BME280;44781;53.444;14.476;2023-07-29T08:24:25;100633.25;;;22.20;82.04
58991;BME280;44781;53.444;14.476;2023-07-29T08:26:52;100629.48;;;22.27;81.12
58991;BME280;44781;53.444;14.476;2023-07-29T08:29:19;100623.50;;;22.33;80.73
58991;BME280;44781;53.444;14.476;2023-07-29T08:31:46;100623.34;;;22.39;80.17
58991;BME280;44781;53.444;14.476;2023-07-29T08:34:13;100621.90;;;22.47;79.42
58991;BME280;44781;53.444;14.476;2023-07-29T08:36:40;100622.82;;;22.55;79.03
58991;BME280;44781;53.444;14.476;2023-07-29T08:39:07;100621.62;;;22.63;78.17
58991;BME280;44781;53.444;14.476;2023-07-29T08:41:41;100617.59;;;22.70;77.87
58991;BME280;44781;53.444;14.476;2023-07-29T08:44:25;100618.30;;;22.79;77.53
58991;BME280;44781;53.444;14.476;2023-07-29T08:46:52;100620.51;;;22.88;77.20
58991;BME280;44781;53.444;14.476;2023-07-29T08:49:21;100616.66;;;22.94;76.14
58991;BME280;44781;53.444;14.476;2023-07-29T08:51:50;100619.75;;;22.99;75.87
58991;BME280;44781;53.444;14.476;2023-07-29T08:54:19;100619.35;;;23.04;75.67
58991;BME280;44781;53.444;14.476;2023-07-29T08:56:46;100618.99;;;23.09;75.48
58991;BME280;44781;53.444;14.476;2023-07-29T08:59:16;100617.97;;;23.14;74.88
58991;BME280;44781;53.444;14.476;2023-07-29T09:01:44;100613.66;;;23.21;74.67
58991;BME280;44781;53.444;14.476;2023-07-29T09:04:11;100615.40;;;23.28;74.25
58991;BME280;44781;53.444;14.476;2023-07-29T09:06:43;100615.87;;;23.37;73.73
58991;BME280;44781;53.444;14.476;2023-07-29T09:09:12;100614.23;;;23.46;73.60
58991;BME280;44781;53.444;14.476;2023-07-29T09:11:43;100607.67;;;23.54;72.78
58991;BME280;44781;53.444;14.476;2023-07-29T09:14:11;100608.14;;;23.61;71.49
58991;BME280;44781;53.444;14.476;2023-07-29T09:16:40;100607.64;;;23.68;71.04
58991;BME280;44781;53.444;14.476;2023-07-29T09:19:08;100605.20;;;23.74;70.40
58991;BME280;44781;53.444;14.476;2023-07-29T09:21:39;100607.43;;;23.79;69.89
58991;BME280;44781;53.444;14.476;2023-07-29T09:24:06;100601.20;;;23.84;69.25
58991;BME280;44781;53.444;14.476;2023-07-29T09:26:34;100602.27;;;23.89;69.11
58991;BME280;44781;53.444;14.476;2023-07-29T09:29:04;100596.12;;;23.93;68.84
58991;BME280;44781;53.444;14.476;2023-07-29T09:31:31;100589.20;;;23.96;68.05
58991;BME280;44781;53.444;14.476;2023-07-29T09:33:58;100585.51;;;23.99;67.66
58991;BME280;44781;53.444;14.476;2023-07-29T09:36:33;100580.63;;;24.01;67.53
58991;BME280;44781;53.444;14.476;2023-07-29T09:39:03;100584.91;;;24.08;66.84
58991;BME280;44781;53.444;14.476;2023-07-29T09:41:30;100575.54;;;24.11;66.77
58991;BME280;44781;53.444;14.476;2023-07-29T09:43:59;100570.58;;;24.11;66.73
58991;BME280;44781;53.444;14.476;2023-07-29T09:46:36;100568.23;;;24.16;66.67
58991;BME280;44781;53.444;14.476;2023-07-29T09:49:04;100574.77;;;24.24;66.24
58991;BME280;44781;53.444;14.476;2023-07-29T09:51:31;100574.89;;;24.30;66.33
58991;BME280;44781;53.444;14.476;2023-07-29T09:54:02;100568.83;;;24.36;66.13
58991;BME280;44781;53.444;14.476;2023-07-29T09:56:30;100563.39;;;24.43;65.53
58991;BME280;44781;53.444;14.476;2023-07-29T09:59:04;100558.43;;;24.50;64.95
58991;BME280;44781;53.444;14.476;2023-07-29T10:01:33;100557.80;;;24.57;64.81
58991;BME280;44781;53.444;14.476;2023-07-29T10:04:03;100551.81;;;24.64;64.61
58991;BME280;44781;53.444;14.476;2023-07-29T10:06:35;100544.41;;;24.69;64.15
58991;BME280;44781;53.444;14.476;2023-07-29T10:09:05;100542.87;;;24.77;64.21
58991;BME280;44781;53.444;14.476;2023-07-29T10:11:35;100537.80;;;24.85;63.87
58991;BME280;44781;53.444;14.476;2023-07-29T10:14:08;100533.27;;;24.93;63.73
58991;BME280;44781;53.444;14.476;2023-07-29T10:16:36;100527.54;;;25.02;63.36
58991;BME280;44781;53.444;14.476;2023-07-29T10:19:09;100519.39;;;25.11;63.39
58991;BME280;44781;53.444;14.476;2023-07-29T10:21:44;100510.00;;;25.21;62.93
58991;BME280;44781;53.444;14.476;2023-07-29T10:24:19;100498.48;;;25.30;62.68
58991;BME280;44781;53.444;14.476;2023-07-29T10:26:53;100498.91;;;25.44;62.58
58991;BME280;44781;53.444;14.476;2023-07-29T10:29:31;100497.30;;;25.57;61.95
58991;BME280;44781;53.444;14.476;2023-07-29T10:32:04;100492.40;;;25.68;61.17
58991;BME280;44781;53.444;14.476;2023-07-29T10:34:35;100488.05;;;25.78;60.84
58991;BME280;44781;53.444;14.476;2023-07-29T10:37:03;100484.96;;;25.88;60.52
58991;BME280;44781;53.444;14.476;2023-07-29T10:39:54;100485.21;;;25.98;60.22
58991;BME280;44781;53.444;14.476;2023-07-29T10:42:22;100477.00;;;26.08;59.67
58991;BME280;44781;53.444;14.476;2023-07-29T10:44:53;100472.27;;;26.17;59.25
58991;BME280;44781;53.444;14.476;2023-07-29T10:47:26;100468.73;;;26.26;59.20
58991;BME280;44781;53.444;14.476;2023-07-29T10:49:58;100463.81;;;26.35;58.64
58991;BME280;44781;53.444;14.476;2023-07-29T10:55:06;100448.92;;;26.46;57.63
58991;BME280;44781;53.444;14.476;2023-07-29T10:57:49;100439.95;;;26.50;57.31
58991;BME280;44781;53.444;14.476;2023-07-29T11:00:19;100445.10;;;26.53;57.44
58991;BME280;44781;53.444;14.476;2023-07-29T11:03:00;100447.08;;;26.56;57.20
58991;BME280;44781;53.444;14.476;2023-07-29T11:05:51;100440.59;;;26.57;56.70
58991;BME280;44781;53.444;14.476;2023-07-29T11:08:32;100430.80;;;26.59;56.35
58991;BME280;44781;53.444;14.476;2023-07-29T11:11:14;100420.77;;;26.59;56.03
58991;BME280;44781;53.444;14.476;2023-07-29T11:13:41;100425.95;;;26.60;56.32
58991;BME280;44781;53.444;14.476;2023-07-29T11:16:10;100435.69;;;26.59;56.30
58991;BME280;44781;53.444;14.476;2023-07-29T11:18:38;100435.70;;;26.57;56.24
58991;BME280;44781;53.444;14.476;2023-07-29T11:21:06;100431.33;;;26.55;56.60
58991;BME280;44781;53.444;14.476;2023-07-29T11:23:36;100424.02;;;26.49;57.10
58991;BME280;44781;53.444;14.476;2023-07-29T11:26:11;100419.39;;;26.43;58.33
58991;BME280;44781;53.444;14.476;2023-07-29T11:28:40;100407.67;;;26.38;59.18
58991;BME280;44781;53.444;14.476;2023-07-29T11:31:07;100402.06;;;26.35;59.87
58991;BME280;44781;53.444;14.476;2023-07-29T11:33:34;100397.77;;;26.33;59.93
58991;BME280;44781;53.444;14.476;2023-07-29T11:36:00;100394.41;;;26.34;60.43
58991;BME280;44781;53.444;14.476;2023-07-29T11:38:29;100406.48;;;26.36;60.49
58991;BME280;44781;53.444;14.476;2023-07-29T11:41:01;100414.88;;;26.38;60.46
58991;BME280;44781;53.444;14.476;2023-07-29T11:43:30;100431.23;;;26.37;59.91
58991;BME280;44781;53.444;14.476;2023-07-29T11:46:01;100430.17;;;26.34;59.38
58991;BME280;44781;53.444;14.476;2023-07-29T11:48:31;100429.17;;;26.31;59.15
58991;BME280;44781;53.444;14.476;2023-07-29T11:50:59;100420.30;;;26.28;58.97
58991;BME280;44781;53.444;14.476;2023-07-29T11:53:28;100413.73;;;26.25;58.58
58991;BME280;44781;53.444;14.476;2023-07-29T11:55:56;100416.80;;;26.20;58.37
58991;BME280;44781;53.444;14.476;2023-07-29T11:58:24;100422.52;;;26.13;58.45
58991;BME280;44781;53.444;14.476;2023-07-29T12:00:51;100415.20;;;26.02;58.68
58991;BME280;44781;53.444;14.476;2023-07-29T12:03:18;100410.41;;;25.90;59.17
58991;BME280;44781;53.444;14.476;2023-07-29T12:05:46;100416.15;;;25.75;59.80
58991;BME280;44781;53.444;14.476;2023-07-29T12:08:14;100419.71;;;25.57;59.94
58991;BME280;44781;53.444;14.476;2023-07-29T12:10:42;100448.41;;;25.36;60.34
58991;BME280;44781;53.444;14.476;2023-07-29T12:13:09;100489.23;;;25.17;60.56
58991;BME280;44781;53.444;14.476;2023-07-29T12:15:42;100507.65;;;24.94;60.74
58991;BME280;44781;53.444;14.476;2023-07-29T12:18:12;100494.84;;;24.66;61.17
58991;BME280;44781;53.444;14.476;2023-07-29T12:20:44;100500.78;;;24.34;61.52
58991;BME280;44781;53.444;14.476;2023-07-29T12:23:12;100520.55;;;24.02;61.71
58991;BME280;44781;53.444;14.476;2023-07-29T12:25:40;100505.75;;;23.72;62.15
58991;BME280;44781;53.444;14.476;2023-07-29T12:28:09;100512.70;;;23.45;62.86
58991;BME280;44781;53.444;14.476;2023-07-29T12:30:43;100506.31;;;23.18;63.39
58991;BME280;44781;53.444;14.476;2023-07-29T12:33:10;100508.23;;;22.97;63.86
58991;BME280;44781;53.444;14.476;2023-07-29T12:35:41;100496.70;;;22.76;64.34
58991;BME280;44781;53.444;14.476;2023-07-29T12:38:29;100481.44;;;22.57;65.18
58991;BME280;44781;53.444;14.476;2023-07-29T12:40:57;100483.08;;;22.40;65.85
58991;BME280;44781;53.444;14.476;2023-07-29T12:43:53;100501.46;;;22.25;66.69
58991;BME280;44781;53.444;14.476;2023-07-29T12:46:20;100509.16;;;22.10;67.10
58991;BME280;44781;53.444;14.476;2023-07-29T12:48:53;100495.84;;;21.96;67.67
58991;BME280;44781;53.444;14.476;2023-07-29T12:51:20;100495.15;;;21.84;68.23
58991;BME280;44781;53.444;14.476;2023-07-29T12:53:47;100496.48;;;21.74;68.90
58991;BME280;44781;53.444;14.476;2023-07-29T12:56:16;100498.98;;;21.68;69.84
58991;BME280;44781;53.444;14.476;2023-07-29T12:58:46;100497.16;;;21.63;70.50